Terminal Aerodrome Forecast
Issued by NWS

Home | Current Version | Previous Version | Text Only | Print | Product List | Glossary On
Versions: 1 2 3 4 5 6 7 8 9 10 11 12 13
584
FTUS46 KPDT 242341
TAFDLS
TAF
KDLS 242341Z 2500/2524 32010KT P6SM SCT110
     FM250800 10004KT P6SM SCT080 SCT150
     FM251500 VRB03KT P6SM FEW070 FEW180
     FM251800 09005KT P6SM SKC=

USA.gov is the U.S. government's official web portal to all federal, state and local government web resources and services.